sensor_id;sensor_type;location;lat;lon;timestamp;pressure;altitude;pressure_sealevel;temperature;humidity
49315;BME280;36672;50.710;12.498;2023-01-30T00:01:36;98716.34;;;-3.37;74.23
49315;BME280;36672;50.710;12.498;2023-01-30T00:04:02;98727.09;;;-3.28;73.40
49315;BME280;36672;50.710;12.498;2023-01-30T00:06:27;98705.34;;;-3.31;73.99
49315;BME280;36672;50.710;12.498;2023-01-30T00:08:52;98719.72;;;-3.22;73.32
49315;BME280;36672;50.710;12.498;2023-01-30T00:11:18;98734.19;;;-3.15;73.18
49315;BME280;36672;50.710;12.498;2023-01-30T00:13:45;98722.44;;;-3.11;73.62
49315;BME280;36672;50.710;12.498;2023-01-30T00:16:11;98703.09;;;-3.12;73.33
49315;BME280;36672;50.710;12.498;2023-01-30T00:18:38;98720.53;;;-2.96;73.57
49315;BME280;36672;50.710;12.498;2023-01-30T00:21:05;98709.59;;;-2.91;73.61
49315;BME280;36672;50.710;12.498;2023-01-30T00:23:32;98705.06;;;-2.89;73.67
49315;BME280;36672;50.710;12.498;2023-01-30T00:25:58;98701.97;;;-2.83;73.57
49315;BME280;36672;50.710;12.498;2023-01-30T00:28:24;98701.03;;;-2.82;72.78
49315;BME280;36672;50.710;12.498;2023-01-30T00:30:51;98690.00;;;-2.76;72.92
49315;BME280;36672;50.710;12.498;2023-01-30T00:33:17;98687.69;;;-2.81;72.86
49315;BME280;36672;50.710;12.498;2023-01-30T00:35:47;98695.00;;;-2.84;72.83
49315;BME280;36672;50.710;12.498;2023-01-30T00:38:13;98670.56;;;-2.88;73.27
49315;BME280;36672;50.710;12.498;2023-01-30T00:40:39;98681.22;;;-2.76;73.43
49315;BME280;36672;50.710;12.498;2023-01-30T00:43:05;98674.72;;;-2.72;73.29
49315;BME280;36672;50.710;12.498;2023-01-30T00:45:49;98679.56;;;-2.66;73.19
49315;BME280;36672;50.710;12.498;2023-01-30T00:48:34;98684.66;;;-2.63;72.79
49315;BME280;36672;50.710;12.498;2023-01-30T00:50:59;98672.91;;;-2.59;72.54
49315;BME280;36672;50.710;12.498;2023-01-30T00:53:25;98669.75;;;-2.64;72.65
49315;BME280;36672;50.710;12.498;2023-01-30T00:55:51;98659.91;;;-2.62;72.73
49315;BME280;36672;50.710;12.498;2023-01-30T00:58:16;98671.50;;;-2.52;73.20
49315;BME280;36672;50.710;12.498;2023-01-30T01:00:42;98664.38;;;-2.51;72.86
49315;BME280;36672;50.710;12.498;2023-01-30T01:03:07;98660.47;;;-2.46;72.73
49315;BME280;36672;50.710;12.498;2023-01-30T01:05:33;98663.81;;;-2.43;72.53
49315;BME280;36672;50.710;12.498;2023-01-30T01:07:58;98631.69;;;-2.50;72.86
49315;BME280;36672;50.710;12.498;2023-01-30T01:10:23;98631.34;;;-2.46;72.90
49315;BME280;36672;50.710;12.498;2023-01-30T01:12:49;98630.53;;;-2.35;72.98
49315;BME280;36672;50.710;12.498;2023-01-30T01:15:19;98611.03;;;-2.45;72.70
49315;BME280;36672;50.710;12.498;2023-01-30T01:17:45;98612.75;;;-2.33;72.59
49315;BME280;36672;50.710;12.498;2023-01-30T01:20:11;98601.09;;;-2.30;73.18
49315;BME280;36672;50.710;12.498;2023-01-30T01:22:37;98595.94;;;-2.32;72.68
49315;BME280;36672;50.710;12.498;2023-01-30T01:25:03;98593.78;;;-2.26;72.80
49315;BME280;36672;50.710;12.498;2023-01-30T01:27:28;98583.81;;;-2.23;72.51
49315;BME280;36672;50.710;12.498;2023-01-30T01:29:54;98581.38;;;-2.26;72.58
49315;BME280;36672;50.710;12.498;2023-01-30T01:32:20;98556.22;;;-2.32;73.07
49315;BME280;36672;50.710;12.498;2023-01-30T01:34:45;98565.75;;;-2.29;72.68
49315;BME280;36672;50.710;12.498;2023-01-30T01:37:11;98540.97;;;-2.28;72.79
49315;BME280;36672;50.710;12.498;2023-01-30T01:39:37;98538.41;;;-2.30;72.85
49315;BME280;36672;50.710;12.498;2023-01-30T01:42:23;98523.00;;;-2.36;73.66
49315;BME280;36672;50.710;12.498;2023-01-30T01:45:03;98532.28;;;-2.30;73.58
49315;BME280;36672;50.710;12.498;2023-01-30T01:47:58;98548.03;;;-2.28;73.43
49315;BME280;36672;50.710;12.498;2023-01-30T01:50:29;98520.03;;;-2.20;73.15
49315;BME280;36672;50.710;12.498;2023-01-30T01:52:57;98517.88;;;-2.15;72.94
49315;BME280;36672;50.710;12.498;2023-01-30T01:55:25;98499.59;;;-2.18;73.06
49315;BME280;36672;50.710;12.498;2023-01-30T01:57:55;98477.94;;;-2.23;73.25
49315;BME280;36672;50.710;12.498;2023-01-30T02:00:22;98485.28;;;-2.15;73.54
49315;BME280;36672;50.710;12.498;2023-01-30T02:02:57;98483.44;;;-2.15;73.84
49315;BME280;36672;50.710;12.498;2023-01-30T02:05:25;98487.91;;;-2.15;73.46
49315;BME280;36672;50.710;12.498;2023-01-30T02:10:35;98487.53;;;-2.10;73.23
49315;BME280;36672;50.710;12.498;2023-01-30T02:13:02;98495.72;;;-2.02;73.18
49315;BME280;36672;50.710;12.498;2023-01-30T02:15:27;98441.56;;;-2.09;73.27
49315;BME280;36672;50.710;12.498;2023-01-30T02:17:52;98472.59;;;-2.00;73.72
49315;BME280;36672;50.710;12.498;2023-01-30T02:28:39;98460.59;;;-2.04;73.96
49315;BME280;36672;50.710;12.498;2023-01-30T02:31:22;98458.78;;;-2.04;73.83
49315;BME280;36672;50.710;12.498;2023-01-30T02:39:47;98454.69;;;-2.08;74.12
49315;BME280;36672;50.710;12.498;2023-01-30T02:44:51;98452.28;;;-2.00;73.66
49315;BME280;36672;50.710;12.498;2023-01-30T02:50:22;98459.50;;;-1.90;74.20
49315;BME280;36672;50.710;12.498;2023-01-30T02:52:50;98427.50;;;-1.99;73.76
49315;BME280;36672;50.710;12.498;2023-01-30T02:55:27;98407.63;;;-2.04;74.07
49315;BME280;36672;50.710;12.498;2023-01-30T02:57:52;98445.53;;;-1.81;73.89
49315;BME280;36672;50.710;12.498;2023-01-30T03:05:38;98410.38;;;-1.83;73.89
49315;BME280;36672;50.710;12.498;2023-01-30T03:16:27;98395.91;;;-1.79;74.04
49315;BME280;36672;50.710;12.498;2023-01-30T03:18:59;98384.84;;;-1.84;74.28
49315;BME280;36672;50.710;12.498;2023-01-30T03:21:25;98375.19;;;-1.74;74.10
49315;BME280;36672;50.710;12.498;2023-01-30T03:23:50;98353.66;;;-1.81;74.14
49315;BME280;36672;50.710;12.498;2023-01-30T03:26:24;98346.69;;;-1.82;74.04
49315;BME280;36672;50.710;12.498;2023-01-30T03:28:52;98357.50;;;-1.73;73.79
49315;BME280;36672;50.710;12.498;2023-01-30T03:31:17;98367.00;;;-1.71;73.56
49315;BME280;36672;50.710;12.498;2023-01-30T03:33:43;98353.34;;;-1.87;74.15
49315;BME280;36672;50.710;12.498;2023-01-30T03:36:09;98362.91;;;-1.75;74.45
49315;BME280;36672;50.710;12.498;2023-01-30T03:38:35;98353.06;;;-1.84;74.35
49315;BME280;36672;50.710;12.498;2023-01-30T03:41:01;98347.88;;;-1.74;74.33
49315;BME280;36672;50.710;12.498;2023-01-30T03:43:26;98341.19;;;-1.90;74.43
49315;BME280;36672;50.710;12.498;2023-01-30T03:45:52;98370.34;;;-1.69;74.68
49315;BME280;36672;50.710;12.498;2023-01-30T03:48:17;98364.22;;;-1.69;74.16
49315;BME280;36672;50.710;12.498;2023-01-30T03:50:42;98359.56;;;-1.77;74.37
49315;BME280;36672;50.710;12.498;2023-01-30T03:53:08;98355.06;;;-1.65;73.98
49315;BME280;36672;50.710;12.498;2023-01-30T03:55:33;98341.47;;;-1.72;74.07
49315;BME280;36672;50.710;12.498;2023-01-30T03:57:58;98345.91;;;-1.72;74.22
49315;BME280;36672;50.710;12.498;2023-01-30T04:00:24;98360.81;;;-1.60;74.18
49315;BME280;36672;50.710;12.498;2023-01-30T04:02:49;98343.44;;;-1.53;74.03
49315;BME280;36672;50.710;12.498;2023-01-30T04:05:15;98336.09;;;-1.49;73.73
49315;BME280;36672;50.710;12.498;2023-01-30T04:07:40;98337.78;;;-1.48;73.72
49315;BME280;36672;50.710;12.498;2023-01-30T04:10:06;98319.09;;;-1.46;74.17
49315;BME280;36672;50.710;12.498;2023-01-30T04:12:32;98310.56;;;-1.50;74.05
49315;BME280;36672;50.710;12.498;2023-01-30T04:14:57;98306.44;;;-1.43;74.20
49315;BME280;36672;50.710;12.498;2023-01-30T04:17:22;98297.53;;;-1.42;74.00
49315;BME280;36672;50.710;12.498;2023-01-30T04:19:48;98285.59;;;-1.48;74.23
49315;BME280;36672;50.710;12.498;2023-01-30T04:22:13;98265.88;;;-1.55;74.57
49315;BME280;36672;50.710;12.498;2023-01-30T04:24:38;98273.09;;;-1.45;74.14
49315;BME280;36672;50.710;12.498;2023-01-30T04:27:03;98274.28;;;-1.50;74.95
49315;BME280;36672;50.710;12.498;2023-01-30T04:29:29;98278.25;;;-1.44;74.72
49315;BME280;36672;50.710;12.498;2023-01-30T04:31:54;98264.28;;;-1.46;75.05
49315;BME280;36672;50.710;12.498;2023-01-30T04:34:19;98285.81;;;-1.39;74.71
49315;BME280;36672;50.710;12.498;2023-01-30T04:36:45;98258.72;;;-1.43;74.48
49315;BME280;36672;50.710;12.498;2023-01-30T04:39:10;98248.56;;;-1.38;74.54
49315;BME280;36672;50.710;12.498;2023-01-30T04:41:35;98220.78;;;-1.43;74.21
49315;BME280;36672;50.710;12.498;2023-01-30T04:44:01;98234.97;;;-1.23;74.64
49315;BME280;36672;50.710;12.498;2023-01-30T04:46:26;98227.97;;;-1.34;74.75
49315;BME280;36672;50.710;12.498;2023-01-30T04:48:51;98241.56;;;-1.18;74.53
49315;BME280;36672;50.710;12.498;2023-01-30T04:51:17;98245.88;;;-1.17;74.34
49315;BME280;36672;50.710;12.498;2023-01-30T04:53:42;98217.56;;;-1.16;74.62
49315;BME280;36672;50.710;12.498;2023-01-30T04:56:07;98214.66;;;-1.13;74.46
49315;BME280;36672;50.710;12.498;2023-01-30T04:58:33;98242.75;;;-1.01;74.26
49315;BME280;36672;50.710;12.498;2023-01-30T05:01:32;98220.81;;;-1.03;74.54
49315;BME280;36672;50.710;12.498;2023-01-30T05:03:58;98193.28;;;-1.21;74.67
49315;BME280;36672;50.710;12.498;2023-01-30T05:06:24;98209.09;;;-1.00;74.30
49315;BME280;36672;50.710;12.498;2023-01-30T05:08:51;98195.16;;;-1.02;74.68
49315;BME280;36672;50.710;12.498;2023-01-30T05:11:17;98207.44;;;-1.01;74.95
49315;BME280;36672;50.710;12.498;2023-01-30T05:13:43;98205.91;;;-0.94;74.61
49315;BME280;36672;50.710;12.498;2023-01-30T05:16:09;98203.84;;;-0.90;74.90
49315;BME280;36672;50.710;12.498;2023-01-30T05:18:35;98213.78;;;-0.83;74.43
49315;BME280;36672;50.710;12.498;2023-01-30T05:21:09;98216.19;;;-0.79;74.72
49315;BME280;36672;50.710;12.498;2023-01-30T05:23:34;98208.63;;;-0.84;74.70
49315;BME280;36672;50.710;12.498;2023-01-30T05:26:00;98215.03;;;-0.87;74.58
49315;BME280;36672;50.710;12.498;2023-01-30T05:28:27;98214.06;;;-0.86;74.74
49315;BME280;36672;50.710;12.498;2023-01-30T05:30:53;98206.09;;;-0.86;74.81
49315;BME280;36672;50.710;12.498;2023-01-30T05:33:18;98195.22;;;-0.92;75.59
49315;BME280;36672;50.710;12.498;2023-01-30T05:35:47;98188.66;;;-0.88;75.54
49315;BME280;36672;50.710;12.498;2023-01-30T05:38:13;98170.75;;;-0.96;75.38
49315;BME280;36672;50.710;12.498;2023-01-30T05:40:39;98193.56;;;-0.84;75.60
49315;BME280;36672;50.710;12.498;2023-01-30T05:43:04;98185.84;;;-0.87;74.93
49315;BME280;36672;50.710;12.498;2023-01-30T05:45:29;98159.91;;;-0.83;75.57
49315;BME280;36672;50.710;12.498;2023-01-30T05:47:55;98175.84;;;-0.73;75.64
49315;BME280;36672;50.710;12.498;2023-01-30T05:50:20;98180.28;;;-0.74;76.01
49315;BME280;36672;50.710;12.498;2023-01-30T05:52:45;98177.38;;;-0.71;76.37
49315;BME280;36672;50.710;12.498;2023-01-30T05:55:11;98168.44;;;-0.79;76.83
49315;BME280;36672;50.710;12.498;2023-01-30T05:57:36;98152.50;;;-0.79;77.27
49315;BME280;36672;50.710;12.498;2023-01-30T06:00:04;98137.44;;;-0.79;78.35
49315;BME280;36672;50.710;12.498;2023-01-30T06:02:29;98149.88;;;-0.79;78.83
49315;BME280;36672;50.710;12.498;2023-01-30T06:04:55;98132.56;;;-0.84;78.62
49315;BME280;36672;50.710;12.498;2023-01-30T06:07:21;98134.34;;;-0.84;79.02
49315;BME280;36672;50.710;12.498;2023-01-30T06:09:46;98113.13;;;-0.84;79.57
49315;BME280;36672;50.710;12.498;2023-01-30T06:12:11;98110.63;;;-0.76;79.43
49315;BME280;36672;50.710;12.498;2023-01-30T06:14:37;98081.69;;;-0.89;79.36
49315;BME280;36672;50.710;12.498;2023-01-30T06:17:02;98085.66;;;-0.73;79.59
49315;BME280;36672;50.710;12.498;2023-01-30T06:19:27;98088.28;;;-0.63;79.27
49315;BME280;36672;50.710;12.498;2023-01-30T06:21:53;98108.41;;;-0.61;79.28
49315;BME280;36672;50.710;12.498;2023-01-30T06:24:18;98044.19;;;-0.74;79.41
49315;BME280;36672;50.710;12.498;2023-01-30T06:26:43;98075.16;;;-0.55;79.45
49315;BME280;36672;50.710;12.498;2023-01-30T06:29:09;98056.31;;;-0.62;79.26
49315;BME280;36672;50.710;12.498;2023-01-30T06:31:34;98081.47;;;-0.46;78.98
49315;BME280;36672;50.710;12.498;2023-01-30T06:33:59;98053.66;;;-0.52;79.67
49315;BME280;36672;50.710;12.498;2023-01-30T06:36:25;98073.75;;;-0.40;79.48
49315;BME280;36672;50.710;12.498;2023-01-30T06:38:50;98074.47;;;-0.38;79.61
49315;BME280;36672;50.710;12.498;2023-01-30T06:41:15;98091.94;;;-0.35;79.82
49315;BME280;36672;50.710;12.498;2023-01-30T06:43:41;98070.53;;;-0.43;79.26
49315;BME280;36672;50.710;12.498;2023-01-30T06:46:06;98095.00;;;-0.30;79.04
49315;BME280;36672;50.710;12.498;2023-01-30T06:48:32;98072.47;;;-0.26;78.79
49315;BME280;36672;50.710;12.498;2023-01-30T06:50:57;98079.22;;;-0.31;78.17
49315;BME280;36672;50.710;12.498;2023-01-30T06:53:22;98086.00;;;-0.09;78.58
49315;BME280;36672;50.710;12.498;2023-01-30T06:55:54;98063.81;;;-0.18;77.93
49315;BME280;36672;50.710;12.498;2023-01-30T06:58:20;98088.94;;;-0.03;77.89
49315;BME280;36672;50.710;12.498;2023-01-30T07:00:45;98098.56;;;-0.02;77.93
49315;BME280;36672;50.710;12.498;2023-01-30T07:03:13;98105.16;;;0.04;77.72
49315;BME280;36672;50.710;12.498;2023-01-30T07:05:39;98105.66;;;0.18;77.57
49315;BME280;36672;50.710;12.498;2023-01-30T07:08:04;98108.03;;;0.21;77.17
49315;BME280;36672;50.710;12.498;2023-01-30T07:10:30;98090.28;;;0.11;77.14
49315;BME280;36672;50.710;12.498;2023-01-30T07:13:16;98125.78;;;0.20;77.06
49315;BME280;36672;50.710;12.498;2023-01-30T07:15:43;98103.56;;;0.21;77.13
49315;BME280;36672;50.710;12.498;2023-01-30T07:18:09;98100.91;;;0.21;76.67
49315;BME280;36672;50.710;12.498;2023-01-30T07:20:35;98112.63;;;0.28;76.95
49315;BME280;36672;50.710;12.498;2023-01-30T07:23:00;98109.69;;;0.31;77.11
49315;BME280;36672;50.710;12.498;2023-01-30T07:25:26;98119.31;;;0.42;76.49
49315;BME280;36672;50.710;12.498;2023-01-30T07:27:57;98093.13;;;0.47;76.18
49315;BME280;36672;50.710;12.498;2023-01-30T07:30:23;98097.50;;;0.39;76.22
49315;BME280;36672;50.710;12.498;2023-01-30T07:32:52;98106.41;;;0.47;75.98
49315;BME280;36672;50.710;12.498;2023-01-30T07:35:19;98096.75;;;0.46;75.63
49315;BME280;36672;50.710;12.498;2023-01-30T07:37:46;98075.53;;;0.37;75.77
49315;BME280;36672;50.710;12.498;2023-01-30T07:40:12;98101.06;;;0.57;75.59
49315;BME280;36672;50.710;12.498;2023-01-30T07:42:38;98089.19;;;0.52;75.70
49315;BME280;36672;50.710;12.498;2023-01-30T07:45:04;98077.06;;;0.39;75.25
49315;BME280;36672;50.710;12.498;2023-01-30T07:47:29;98117.41;;;0.62;75.34
49315;BME280;36672;50.710;12.498;2023-01-30T07:49:55;98105.53;;;0.57;75.32
49315;BME280;36672;50.710;12.498;2023-01-30T07:52:20;98097.56;;;0.57;75.07
49315;BME280;36672;50.710;12.498;2023-01-30T07:54:45;98100.72;;;0.70;75.18
49315;BME280;36672;50.710;12.498;2023-01-30T07:57:11;98108.69;;;0.70;75.07
49315;BME280;36672;50.710;12.498;2023-01-30T07:59:36;98091.50;;;0.64;74.99
49315;BME280;36672;50.710;12.498;2023-01-30T08:02:01;98104.13;;;0.62;74.90
49315;BME280;36672;50.710;12.498;2023-01-30T08:04:27;98103.94;;;0.74;75.14
49315;BME280;36672;50.710;12.498;2023-01-30T08:06:52;98094.31;;;0.63;75.31
49315;BME280;36672;50.710;12.498;2023-01-30T08:09:17;98091.63;;;0.73;75.43
49315;BME280;36672;50.710;12.498;2023-01-30T08:11:43;98111.31;;;0.80;76.11
49315;BME280;36672;50.710;12.498;2023-01-30T08:14:08;98098.03;;;0.80;75.57
49315;BME280;36672;50.710;12.498;2023-01-30T08:16:34;98111.13;;;0.91;76.12
49315;BME280;36672;50.710;12.498;2023-01-30T08:18:59;98093.53;;;0.80;76.77
49315;BME280;36672;50.710;12.498;2023-01-30T08:21:24;98105.09;;;0.89;77.51
49315;BME280;36672;50.710;12.498;2023-01-30T08:23:50;98111.72;;;0.85;77.77
49315;BME280;36672;50.710;12.498;2023-01-30T08:26:15;98117.16;;;0.84;77.67
49315;BME280;36672;50.710;12.498;2023-01-30T08:28:41;98112.31;;;0.79;77.95
49315;BME280;36672;50.710;12.498;2023-01-30T08:31:11;98097.72;;;0.83;78.25
49315;BME280;36672;50.710;12.498;2023-01-30T08:33:36;98104.78;;;0.92;78.13
49315;BME280;36672;50.710;12.498;2023-01-30T08:36:02;98086.09;;;0.84;78.52
49315;BME280;36672;50.710;12.498;2023-01-30T08:38:27;98098.53;;;0.84;78.47
49315;BME280;36672;50.710;12.498;2023-01-30T08:40:52;98096.81;;;0.92;78.57
49315;BME280;36672;50.710;12.498;2023-01-30T08:43:18;98093.88;;;0.95;78.51
49315;BME280;36672;50.710;12.498;2023-01-30T08:45:44;98088.16;;;0.90;78.24
49315;BME280;36672;50.710;12.498;2023-01-30T08:48:09;98096.22;;;0.98;78.00
49315;BME280;36672;50.710;12.498;2023-01-30T08:50:35;98077.47;;;1.00;77.88
49315;BME280;36672;50.710;12.498;2023-01-30T08:53:04;98095.03;;;1.11;77.68
49315;BME280;36672;50.710;12.498;2023-01-30T08:55:30;98095.56;;;1.14;77.81
49315;BME280;36672;50.710;12.498;2023-01-30T08:57:55;98097.91;;;1.18;77.66
49315;BME280;36672;50.710;12.498;2023-01-30T09:00:21;98106.59;;;1.20;77.79
49315;BME280;36672;50.710;12.498;2023-01-30T09:02:47;98101.50;;;1.26;77.89
49315;BME280;36672;50.710;12.498;2023-01-30T09:05:12;98087.44;;;1.16;78.14
49315;BME280;36672;50.710;12.498;2023-01-30T09:07:37;98095.97;;;1.20;77.65
49315;BME280;36672;50.710;12.498;2023-01-30T09:10:03;98109.75;;;1.33;77.57
49315;BME280;36672;50.710;12.498;2023-01-30T09:12:29;98077.78;;;1.15;77.09
49315;BME280;36672;50.710;12.498;2023-01-30T09:14:54;98095.75;;;1.31;76.72
49315;BME280;36672;50.710;12.498;2023-01-30T09:17:22;98083.94;;;1.34;76.92
49315;BME280;36672;50.710;12.498;2023-01-30T09:19:47;98059.31;;;1.32;76.41
49315;BME280;36672;50.710;12.498;2023-01-30T09:22:13;98066.38;;;1.41;76.36
49315;BME280;36672;50.710;12.498;2023-01-30T09:24:38;98069.03;;;1.59;75.99
49315;BME280;36672;50.710;12.498;2023-01-30T09:27:03;98047.53;;;1.52;75.47
49315;BME280;36672;50.710;12.498;2023-01-30T09:29:29;98039.13;;;1.65;74.63
49315;BME280;36672;50.710;12.498;2023-01-30T09:31:55;98055.63;;;1.69;74.10
49315;BME280;36672;50.710;12.498;2023-01-30T09:34:21;98064.53;;;1.77;74.66
49315;BME280;36672;50.710;12.498;2023-01-30T09:36:51;98066.41;;;1.85;74.46
49315;BME280;36672;50.710;12.498;2023-01-30T09:39:17;98064.41;;;1.87;73.87
49315;BME280;36672;50.710;12.498;2023-01-30T09:55:30;98045.00;;;1.69;76.12
49315;BME280;36672;50.710;12.498;2023-01-30T09:57:59;98055.75;;;1.85;76.29
49315;BME280;36672;50.710;12.498;2023-01-30T10:00:37;98042.81;;;1.90;76.63
49315;BME280;36672;50.710;12.498;2023-01-30T10:03:09;98060.06;;;2.04;75.77
49315;BME280;36672;50.710;12.498;2023-01-30T10:11:00;98008.16;;;1.64;75.53
49315;BME280;36672;50.710;12.498;2023-01-30T10:13:53;98007.69;;;1.95;75.96
49315;BME280;36672;50.710;12.498;2023-01-30T10:16:27;97997.63;;;2.15;75.68
49315;BME280;36672;50.710;12.498;2023-01-30T10:19:11;97976.53;;;2.22;74.94
49315;BME280;36672;50.710;12.498;2023-01-30T10:22:01;97985.41;;;2.31;75.17
49315;BME280;36672;50.710;12.498;2023-01-30T10:25:04;98002.69;;;2.61;74.81
49315;BME280;36672;50.710;12.498;2023-01-30T10:27:34;98001.41;;;2.82;74.45
49315;BME280;36672;50.710;12.498;2023-01-30T10:30:03;98004.41;;;2.87;74.29
49315;BME280;36672;50.710;12.498;2023-01-30T10:35:26;97986.63;;;2.44;72.50
49315;BME280;36672;50.710;12.498;2023-01-30T10:40:41;97992.06;;;2.35;73.35
49315;BME280;36672;50.710;12.498;2023-01-30T10:45:51;97993.69;;;2.27;73.34
49315;BME280;36672;50.710;12.498;2023-01-30T10:57:12;98000.47;;;2.14;73.20
49315;BME280;36672;50.710;12.498;2023-01-30T11:00:00;98008.47;;;2.14;74.26
49315;BME280;36672;50.710;12.498;2023-01-30T11:05:20;98000.81;;;2.19;74.55
49315;BME280;36672;50.710;12.498;2023-01-30T11:07:48;97993.28;;;2.14;74.48
49315;BME280;36672;50.710;12.498;2023-01-30T11:10:18;98001.69;;;2.19;74.59
49315;BME280;36672;50.710;12.498;2023-01-30T11:12:43;98016.47;;;2.14;75.07
49315;BME280;36672;50.710;12.498;2023-01-30T11:15:09;98002.94;;;2.07;75.33
49315;BME280;36672;50.710;12.498;2023-01-30T11:17:38;97995.13;;;2.14;75.63
49315;BME280;36672;50.710;12.498;2023-01-30T11:20:17;97998.69;;;2.22;75.92
49315;BME280;36672;50.710;12.498;2023-01-30T11:22:46;98006.94;;;2.11;76.01
49315;BME280;36672;50.710;12.498;2023-01-30T11:25:18;98002.31;;;2.13;76.40
49315;BME280;36672;50.710;12.498;2023-01-30T11:30:19;98013.88;;;2.30;76.74
49315;BME280;36672;50.710;12.498;2023-01-30T11:32:47;98001.75;;;2.36;76.37
49315;BME280;36672;50.710;12.498;2023-01-30T11:37:40;98006.06;;;2.88;75.38
49315;BME280;36672;50.710;12.498;2023-01-30T11:42:48;98010.16;;;3.33;74.53
49315;BME280;36672;50.710;12.498;2023-01-30T11:45:15;98007.94;;;3.70;72.95
49315;BME280;36672;50.710;12.498;2023-01-30T11:47:54;97997.38;;;4.10;72.83
49315;BME280;36672;50.710;12.498;2023-01-30T11:50:22;97993.72;;;4.50;69.11
49315;BME280;36672;50.710;12.498;2023-01-30T11:52:50;98004.41;;;4.50;70.09
49315;BME280;36672;50.710;12.498;2023-01-30T11:55:18;97998.63;;;4.38;70.58
49315;BME280;36672;50.710;12.498;2023-01-30T12:00:37;97991.66;;;4.21;70.26
49315;BME280;36672;50.710;12.498;2023-01-30T12:03:05;97981.19;;;3.95;72.01
49315;BME280;36672;50.710;12.498;2023-01-30T12:05:37;97993.88;;;3.92;71.61
49315;BME280;36672;50.710;12.498;2023-01-30T12:10:48;97991.25;;;3.59;72.44
49315;BME280;36672;50.710;12.498;2023-01-30T12:13:41;97992.25;;;3.09;72.50
49315;BME280;36672;50.710;12.498;2023-01-30T12:16:25;97992.41;;;2.91;73.38
49315;BME280;36672;50.710;12.498;2023-01-30T12:19:10;97999.44;;;3.00;73.62
49315;BME280;36672;50.710;12.498;2023-01-30T12:21:49;97996.06;;;2.90;73.79
49315;BME280;36672;50.710;12.498;2023-01-30T12:24:29;97997.25;;;3.04;73.91
49315;BME280;36672;50.710;12.498;2023-01-30T12:27:27;97993.59;;;3.05;73.76
49315;BME280;36672;50.710;12.498;2023-01-30T12:30:37;97983.06;;;3.12;74.90
49315;BME280;36672;50.710;12.498;2023-01-30T12:33:05;97967.59;;;3.23;75.10
49315;BME280;36672;50.710;12.498;2023-01-30T12:35:43;97941.22;;;3.12;75.12
49315;BME280;36672;50.710;12.498;2023-01-30T12:38:36;97950.41;;;3.09;75.56
49315;BME280;36672;50.710;12.498;2023-01-30T12:46:45;97955.06;;;3.32;75.28
49315;BME280;36672;50.710;12.498;2023-01-30T12:49:49;97937.03;;;3.42;75.20
49315;BME280;36672;50.710;12.498;2023-01-30T13:01:00;97924.94;;;3.88;72.00
49315;BME280;36672;50.710;12.498;2023-01-30T13:11:37;97911.88;;;4.33;69.89
49315;BME280;36672;50.710;12.498;2023-01-30T13:19:19;97908.34;;;3.92;71.11
49315;BME280;36672;50.710;12.498;2023-01-30T13:22:23;97900.25;;;3.78;70.75
49315;BME280;36672;50.710;12.498;2023-01-30T13:27:37;97917.47;;;3.67;71.68
49315;BME280;36672;50.710;12.498;2023-01-30T13:30:06;97922.44;;;3.70;71.68
49315;BME280;36672;50.710;12.498;2023-01-30T13:32:37;97930.50;;;3.53;71.62
49315;BME280;36672;50.710;12.498;2023-01-30T13:35:13;97929.34;;;3.48;71.64
49315;BME280;36672;50.710;12.498;2023-01-30T13:37:40;97923.34;;;3.37;72.47
49315;BME280;36672;50.710;12.498;2023-01-30T13:40:27;97926.38;;;3.26;71.96
49315;BME280;36672;50.710;12.498;2023-01-30T13:43:05;97921.03;;;3.26;71.96
49315;BME280;36672;50.710;12.498;2023-01-30T13:45:40;97925.84;;;3.47;72.06
49315;BME280;36672;50.710;12.498;2023-01-30T13:51:03;97935.81;;;3.78;71.09
49315;BME280;36672;50.710;12.498;2023-01-30T13:58:51;97944.53;;;4.20;69.99
49315;BME280;36672;50.710;12.498;2023-01-30T14:01:18;97931.22;;;4.03;70.04
49315;BME280;36672;50.710;12.498;2023-01-30T14:03:45;97936.25;;;3.98;69.95
49315;BME280;36672;50.710;12.498;2023-01-30T14:06:12;97939.09;;;3.97;69.85
49315;BME280;36672;50.710;12.498;2023-01-30T14:08:48;97943.81;;;3.78;70.29
49315;BME280;36672;50.710;12.498;2023-01-30T14:13:59;97941.38;;;3.35;71.63
49315;BME280;36672;50.710;12.498;2023-01-30T14:16:41;97945.03;;;3.34;71.81
49315;BME280;36672;50.710;12.498;2023-01-30T14:19:44;97965.59;;;3.34;71.73
49315;BME280;36672;50.710;12.498;2023-01-30T14:22:27;97961.25;;;3.41;71.64
49315;BME280;36672;50.710;12.498;2023-01-30T14:35:44;97945.38;;;3.48;70.96
49315;BME280;36672;50.710;12.498;2023-01-30T14:38:14;97962.72;;;3.35;70.84
49315;BME280;36672;50.710;12.498;2023-01-30T14:43:37;97976.59;;;3.22;71.71
49315;BME280;36672;50.710;12.498;2023-01-30T14:46:04;97974.75;;;3.15;71.54
49315;BME280;36672;50.710;12.498;2023-01-30T14:49:24;97987.63;;;3.19;71.27
49315;BME280;36672;50.710;12.498;2023-01-30T14:51:42;97982.28;;;3.19;71.11
49315;BME280;36672;50.710;12.498;2023-01-30T14:59:45;97987.09;;;3.16;71.55
49315;BME280;36672;50.710;12.498;2023-01-30T15:04:39;97985.75;;;3.12;71.69
49315;BME280;36672;50.710;12.498;2023-01-30T15:07:13;97997.28;;;3.12;71.75
49315;BME280;36672;50.710;12.498;2023-01-30T15:09:45;97997.25;;;3.04;71.64
49315;BME280;36672;50.710;12.498;2023-01-30T15:15:25;97989.91;;;2.98;71.77
49315;BME280;36672;50.710;12.498;2023-01-30T15:18:33;97997.06;;;2.97;71.77
49315;BME280;36672;50.710;12.498;2023-01-30T15:21:35;98003.25;;;2.89;72.53
49315;BME280;36672;50.710;12.498;2023-01-30T15:24:27;98007.06;;;2.87;72.70
49315;BME280;36672;50.710;12.498;2023-01-30T15:27:09;98012.59;;;2.93;72.35
49315;BME280;36672;50.710;12.498;2023-01-30T15:30:10;98013.56;;;2.92;72.30
49315;BME280;36672;50.710;12.498;2023-01-30T15:32:42;98010.75;;;2.94;72.48
49315;BME280;36672;50.710;12.498;2023-01-30T15:35:21;98036.75;;;2.92;72.50
49315;BME280;36672;50.710;12.498;2023-01-30T15:42:51;98023.75;;;2.97;72.63
49315;BME280;36672;50.710;12.498;2023-01-30T15:48:14;98038.75;;;2.90;72.34
49315;BME280;36672;50.710;12.498;2023-01-30T15:50:48;98048.59;;;2.89;72.76